sensor_id;sensor_type;location;lat;lon;timestamp;pressure;altitude;pressure_sealevel;temperature;humidity
63554;BME280;49699;48.072;7.800;2023-02-28T00:02:11;99995.75;;;-0.48;53.82
63554;BME280;49699;48.072;7.800;2023-02-28T00:04:36;99994.06;;;-0.50;54.14
63554;BME280;49699;48.072;7.800;2023-02-28T00:07:01;100004.28;;;-0.50;53.71
63554;BME280;49699;48.072;7.800;2023-02-28T00:09:27;99994.91;;;-0.51;53.93
63554;BME280;49699;48.072;7.800;2023-02-28T00:11:52;99991.50;;;-0.53;54.00
63554;BME280;49699;48.072;7.800;2023-02-28T00:14:18;100004.34;;;-0.55;53.91
63554;BME280;49699;48.072;7.800;2023-02-28T00:16:43;100003.50;;;-0.57;54.09
63554;BME280;49699;48.072;7.800;2023-02-28T00:19:08;100000.06;;;-0.57;54.27
63554;BME280;49699;48.072;7.800;2023-02-28T00:21:34;100006.03;;;-0.60;54.18
63554;BME280;49699;48.072;7.800;2023-02-28T00:24:00;99993.28;;;-0.63;54.52
63554;BME280;49699;48.072;7.800;2023-02-28T00:26:25;99989.88;;;-0.63;54.53
63554;BME280;49699;48.072;7.800;2023-02-28T00:28:51;99999.25;;;-0.64;54.64
63554;BME280;49699;48.072;7.800;2023-02-28T00:31:17;100001.78;;;-0.65;54.65
63554;BME280;49699;48.072;7.800;2023-02-28T00:33:43;99991.56;;;-0.67;54.92
63554;BME280;49699;48.072;7.800;2023-02-28T00:36:09;99994.97;;;-0.70;54.41
63554;BME280;49699;48.072;7.800;2023-02-28T00:38:35;99996.69;;;-0.72;54.93
63554;BME280;49699;48.072;7.800;2023-02-28T00:41:01;99994.16;;;-0.73;55.00
63554;BME280;49699;48.072;7.800;2023-02-28T00:43:29;100001.00;;;-0.75;54.93
63554;BME280;49699;48.072;7.800;2023-02-28T00:45:55;99997.59;;;-0.76;54.99
63554;BME280;49699;48.072;7.800;2023-02-28T00:48:20;100000.13;;;-0.76;55.23
63554;BME280;49699;48.072;7.800;2023-02-28T00:50:48;100000.13;;;-0.74;55.38
63554;BME280;49699;48.072;7.800;2023-02-28T00:53:13;99998.44;;;-0.74;55.32
63554;BME280;49699;48.072;7.800;2023-02-28T00:55:39;99997.59;;;-0.74;54.97
63554;BME280;49699;48.072;7.800;2023-02-28T00:58:04;99992.47;;;-0.74;54.71
63554;BME280;49699;48.072;7.800;2023-02-28T01:00:29;99995.03;;;-0.73;55.48
63554;BME280;49699;48.072;7.800;2023-02-28T01:02:54;99998.44;;;-0.72;55.30
63554;BME280;49699;48.072;7.800;2023-02-28T01:05:21;99994.13;;;-0.72;55.61
63554;BME280;49699;48.072;7.800;2023-02-28T01:07:46;99989.91;;;-0.74;55.21
63554;BME280;49699;48.072;7.800;2023-02-28T01:10:11;100002.69;;;-0.73;55.25
63554;BME280;49699;48.072;7.800;2023-02-28T01:12:37;99994.16;;;-0.73;55.68
63554;BME280;49699;48.072;7.800;2023-02-28T01:15:03;99995.03;;;-0.74;55.38
63554;BME280;49699;48.072;7.800;2023-02-28T01:17:28;99996.72;;;-0.73;55.43
63554;BME280;49699;48.072;7.800;2023-02-28T01:19:54;99986.50;;;-0.73;55.25
63554;BME280;49699;48.072;7.800;2023-02-28T01:22:20;99987.34;;;-0.74;55.74
63554;BME280;49699;48.072;7.800;2023-02-28T01:24:46;99983.09;;;-0.74;55.58
63554;BME280;49699;48.072;7.800;2023-02-28T01:27:11;99981.41;;;-0.75;55.91
63554;BME280;49699;48.072;7.800;2023-02-28T01:29:37;99976.28;;;-0.73;55.94
63554;BME280;49699;48.072;7.800;2023-02-28T01:32:02;99979.69;;;-0.73;55.62
63554;BME280;49699;48.072;7.800;2023-02-28T01:34:27;99982.25;;;-0.73;55.66
63554;BME280;49699;48.072;7.800;2023-02-28T01:36:53;99984.75;;;-0.71;55.94
63554;BME280;49699;48.072;7.800;2023-02-28T01:39:18;99980.50;;;-0.71;56.06
63554;BME280;49699;48.072;7.800;2023-02-28T01:41:43;99982.22;;;-0.71;56.01
63554;BME280;49699;48.072;7.800;2023-02-28T01:46:54;99985.63;;;-0.69;56.30
63554;BME280;49699;48.072;7.800;2023-02-28T01:49:20;99990.72;;;-0.67;56.32
63554;BME280;49699;48.072;7.800;2023-02-28T01:51:46;99984.75;;;-0.66;55.97
63554;BME280;49699;48.072;7.800;2023-02-28T01:54:50;99977.94;;;-0.66;56.06
63554;BME280;49699;48.072;7.800;2023-02-28T01:57:10;99986.47;;;-0.65;56.54
63554;BME280;49699;48.072;7.800;2023-02-28T01:59:39;99963.44;;;-0.64;56.15
63554;BME280;49699;48.072;7.800;2023-02-28T02:02:14;99964.28;;;-0.62;55.94
63554;BME280;49699;48.072;7.800;2023-02-28T02:05:03;99961.72;;;-0.60;56.04
63554;BME280;49699;48.072;7.800;2023-02-28T02:07:26;99969.41;;;-0.57;56.05
63554;BME280;49699;48.072;7.800;2023-02-28T02:10:11;99966.84;;;-0.57;56.28
63554;BME280;49699;48.072;7.800;2023-02-28T02:15:25;99962.56;;;-0.54;56.70
63554;BME280;49699;48.072;7.800;2023-02-28T02:17:52;99966.78;;;-0.51;56.61
63554;BME280;49699;48.072;7.800;2023-02-28T02:25:23;99955.69;;;-0.46;56.55
63554;BME280;49699;48.072;7.800;2023-02-28T02:30:28;99955.72;;;-0.49;56.94
63554;BME280;49699;48.072;7.800;2023-02-28T02:35:43;99962.59;;;-0.61;58.14
63554;BME280;49699;48.072;7.800;2023-02-28T02:38:20;99963.47;;;-0.67;58.61
63554;BME280;49699;48.072;7.800;2023-02-28T02:43:36;99956.69;;;-0.74;58.91
63554;BME280;49699;48.072;7.800;2023-02-28T02:46:06;99957.53;;;-0.80;59.24
63554;BME280;49699;48.072;7.800;2023-02-28T02:48:34;99963.50;;;-0.81;59.47
63554;BME280;49699;48.072;7.800;2023-02-28T02:51:04;99958.41;;;-0.82;59.31
63554;BME280;49699;48.072;7.800;2023-02-28T02:53:38;99954.16;;;-0.82;59.08
63554;BME280;49699;48.072;7.800;2023-02-28T02:56:06;99960.97;;;-0.81;59.33
63554;BME280;49699;48.072;7.800;2023-02-28T02:58:35;99955.84;;;-0.82;59.50
63554;BME280;49699;48.072;7.800;2023-02-28T03:01:06;99950.72;;;-0.81;59.48
63554;BME280;49699;48.072;7.800;2023-02-28T03:03:34;99948.19;;;-0.81;59.55
63554;BME280;49699;48.072;7.800;2023-02-28T03:06:01;99941.38;;;-0.82;59.92
63554;BME280;49699;48.072;7.800;2023-02-28T03:08:28;99945.63;;;-0.81;59.63
63554;BME280;49699;48.072;7.800;2023-02-28T03:10:58;99950.75;;;-0.82;59.85
63554;BME280;49699;48.072;7.800;2023-02-28T03:16:44;99943.06;;;-0.79;59.58
63554;BME280;49699;48.072;7.800;2023-02-28T03:19:08;99939.66;;;-0.78;59.73
63554;BME280;49699;48.072;7.800;2023-02-28T03:26:54;99940.50;;;-0.78;60.28
63554;BME280;49699;48.072;7.800;2023-02-28T03:29:23;99942.22;;;-0.75;60.12
63554;BME280;49699;48.072;7.800;2023-02-28T03:31:55;99939.66;;;-0.78;60.38
63554;BME280;49699;48.072;7.800;2023-02-28T03:34:29;99940.50;;;-0.79;60.29
63554;BME280;49699;48.072;7.800;2023-02-28T03:36:59;99946.47;;;-0.79;60.68
63554;BME280;49699;48.072;7.800;2023-02-28T03:39:37;99937.09;;;-0.78;60.61
63554;BME280;49699;48.072;7.800;2023-02-28T03:42:05;99934.53;;;-0.78;60.42
63554;BME280;49699;48.072;7.800;2023-02-28T03:44:35;99940.50;;;-0.79;60.55
63554;BME280;49699;48.072;7.800;2023-02-28T03:47:08;99946.47;;;-0.80;60.57
63554;BME280;49699;48.072;7.800;2023-02-28T03:49:36;99943.94;;;-0.82;60.86
63554;BME280;49699;48.072;7.800;2023-02-28T03:52:06;99945.63;;;-0.82;61.00
63554;BME280;49699;48.072;7.800;2023-02-28T03:54:33;99943.06;;;-0.82;61.35
63554;BME280;49699;48.072;7.800;2023-02-28T03:59:46;99955.00;;;-0.81;61.00
63554;BME280;49699;48.072;7.800;2023-02-28T04:02:13;99951.59;;;-0.83;60.90
63554;BME280;49699;48.072;7.800;2023-02-28T04:04:38;99949.88;;;-0.84;61.37
63554;BME280;49699;48.072;7.800;2023-02-28T04:07:07;99945.63;;;-0.85;61.16
63554;BME280;49699;48.072;7.800;2023-02-28T04:09:33;99949.88;;;-0.86;61.20
63554;BME280;49699;48.072;7.800;2023-02-28T04:11:58;99948.19;;;-0.85;61.56
63554;BME280;49699;48.072;7.800;2023-02-28T04:14:24;99952.44;;;-0.87;61.40
63554;BME280;49699;48.072;7.800;2023-02-28T04:16:49;99953.31;;;-0.87;61.81
63554;BME280;49699;48.072;7.800;2023-02-28T04:19:16;99952.44;;;-0.87;61.63
63554;BME280;49699;48.072;7.800;2023-02-28T04:21:42;99958.44;;;-0.90;61.83
63554;BME280;49699;48.072;7.800;2023-02-28T04:24:08;99959.31;;;-0.92;62.42
63554;BME280;49699;48.072;7.800;2023-02-28T04:26:39;99952.50;;;-0.95;62.47
63554;BME280;49699;48.072;7.800;2023-02-28T04:29:05;99958.47;;;-0.97;62.20
63554;BME280;49699;48.072;7.800;2023-02-28T04:31:31;99965.28;;;-0.99;62.24
63554;BME280;49699;48.072;7.800;2023-02-28T04:33:57;99961.00;;;-0.99;62.27
63554;BME280;49699;48.072;7.800;2023-02-28T04:36:22;99962.72;;;-0.98;62.20
63554;BME280;49699;48.072;7.800;2023-02-28T04:38:48;99957.59;;;-0.98;62.69
63554;BME280;49699;48.072;7.800;2023-02-28T04:41:14;99961.00;;;-0.96;62.87
63554;BME280;49699;48.072;7.800;2023-02-28T04:43:41;99960.16;;;-0.93;62.33
63554;BME280;49699;48.072;7.800;2023-02-28T04:46:07;99955.84;;;-0.88;62.14
63554;BME280;49699;48.072;7.800;2023-02-28T04:48:34;99962.66;;;-0.84;62.44
63554;BME280;49699;48.072;7.800;2023-02-28T04:51:03;99968.63;;;-0.79;62.16
63554;BME280;49699;48.072;7.800;2023-02-28T04:53:29;99957.50;;;-0.71;61.62
63554;BME280;49699;48.072;7.800;2023-02-28T04:55:58;99970.25;;;-0.64;61.65
63554;BME280;49699;48.072;7.800;2023-02-28T04:58:23;99967.69;;;-0.57;61.14
63554;BME280;49699;48.072;7.800;2023-02-28T05:00:52;99974.50;;;-0.54;60.98
63554;BME280;49699;48.072;7.800;2023-02-28T05:03:17;99968.50;;;-0.50;61.08
63554;BME280;49699;48.072;7.800;2023-02-28T05:05:43;99966.78;;;-0.50;61.16
63554;BME280;49699;48.072;7.800;2023-02-28T05:08:08;99975.31;;;-0.46;60.94
63554;BME280;49699;48.072;7.800;2023-02-28T05:10:34;99960.81;;;-0.47;61.09
63554;BME280;49699;48.072;7.800;2023-02-28T05:13:00;99965.94;;;-0.47;61.30
63554;BME280;49699;48.072;7.800;2023-02-28T05:15:25;99967.63;;;-0.48;61.11
63554;BME280;49699;48.072;7.800;2023-02-28T05:17:50;99974.47;;;-0.48;61.26
63554;BME280;49699;48.072;7.800;2023-02-28T05:20:15;99977.00;;;-0.47;61.24
63554;BME280;49699;48.072;7.800;2023-02-28T05:22:41;99973.59;;;-0.47;61.02
63554;BME280;49699;48.072;7.800;2023-02-28T05:25:08;99972.75;;;-0.46;61.29
63554;BME280;49699;48.072;7.800;2023-02-28T05:27:36;99983.81;;;-0.47;61.05
63554;BME280;49699;48.072;7.800;2023-02-28T05:30:01;99984.69;;;-0.47;61.26
63554;BME280;49699;48.072;7.800;2023-02-28T05:32:28;99981.28;;;-0.47;61.22
63554;BME280;49699;48.072;7.800;2023-02-28T05:34:53;99988.09;;;-0.46;61.10
63554;BME280;49699;48.072;7.800;2023-02-28T05:37:19;99994.06;;;-0.46;61.60
63554;BME280;49699;48.072;7.800;2023-02-28T05:39:44;99988.94;;;-0.47;61.62
63554;BME280;49699;48.072;7.800;2023-02-28T05:42:09;99990.66;;;-0.46;61.45
63554;BME280;49699;48.072;7.800;2023-02-28T05:44:35;99994.91;;;-0.45;61.78
63554;BME280;49699;48.072;7.800;2023-02-28T05:47:04;99989.81;;;-0.48;61.63
63554;BME280;49699;48.072;7.800;2023-02-28T05:49:29;99997.47;;;-0.47;61.68
63554;BME280;49699;48.072;7.800;2023-02-28T05:51:55;100000.03;;;-0.47;61.66
63554;BME280;49699;48.072;7.800;2023-02-28T05:54:20;100000.88;;;-0.46;61.39
63554;BME280;49699;48.072;7.800;2023-02-28T05:56:45;100003.44;;;-0.46;61.52
63554;BME280;49699;48.072;7.800;2023-02-28T05:59:11;99995.75;;;-0.48;61.43
63554;BME280;49699;48.072;7.800;2023-02-28T06:01:38;99991.50;;;-0.47;61.66
63554;BME280;49699;48.072;7.800;2023-02-28T06:04:05;99993.22;;;-0.48;62.04
63554;BME280;49699;48.072;7.800;2023-02-28T06:06:31;99988.09;;;-0.48;61.67
63554;BME280;49699;48.072;7.800;2023-02-28T06:08:59;100004.28;;;-0.49;61.91
63554;BME280;49699;48.072;7.800;2023-02-28T06:11:24;99996.63;;;-0.49;61.97
63554;BME280;49699;48.072;7.800;2023-02-28T06:13:56;99998.31;;;-0.48;62.16
63554;BME280;49699;48.072;7.800;2023-02-28T06:16:22;100004.28;;;-0.49;62.72
63554;BME280;49699;48.072;7.800;2023-02-28T06:18:48;100001.75;;;-0.52;63.19
63554;BME280;49699;48.072;7.800;2023-02-28T06:21:13;100001.75;;;-0.53;63.15
63554;BME280;49699;48.072;7.800;2023-02-28T06:23:38;100017.13;;;-0.55;63.56
63554;BME280;49699;48.072;7.800;2023-02-28T06:26:04;100019.66;;;-0.55;63.69
63554;BME280;49699;48.072;7.800;2023-02-28T06:28:29;100015.41;;;-0.56;63.88
63554;BME280;49699;48.072;7.800;2023-02-28T06:30:54;100012.84;;;-0.57;63.77
63554;BME280;49699;48.072;7.800;2023-02-28T06:33:20;100021.38;;;-0.55;63.79
63554;BME280;49699;48.072;7.800;2023-02-28T06:35:54;100019.69;;;-0.58;64.09
63554;BME280;49699;48.072;7.800;2023-02-28T06:38:20;100023.09;;;-0.56;64.11
63554;BME280;49699;48.072;7.800;2023-02-28T06:40:52;100023.94;;;-0.55;64.20
63554;BME280;49699;48.072;7.800;2023-02-28T06:43:17;100023.09;;;-0.56;64.61
63554;BME280;49699;48.072;7.800;2023-02-28T06:45:43;100024.78;;;-0.55;64.16
63554;BME280;49699;48.072;7.800;2023-02-28T06:48:09;100029.91;;;-0.55;64.43
63554;BME280;49699;48.072;7.800;2023-02-28T06:50:35;100030.75;;;-0.54;64.71
63554;BME280;49699;48.072;7.800;2023-02-28T06:53:00;100032.41;;;-0.53;64.59
63554;BME280;49699;48.072;7.800;2023-02-28T06:55:25;100039.25;;;-0.52;64.63
63554;BME280;49699;48.072;7.800;2023-02-28T06:57:51;100037.53;;;-0.52;64.49
63554;BME280;49699;48.072;7.800;2023-02-28T07:00:16;100036.69;;;-0.51;64.27
63554;BME280;49699;48.072;7.800;2023-02-28T07:02:42;100040.09;;;-0.50;64.15
63554;BME280;49699;48.072;7.800;2023-02-28T07:05:07;100041.78;;;-0.48;64.37
63554;BME280;49699;48.072;7.800;2023-02-28T07:07:32;100040.09;;;-0.47;64.38
63554;BME280;49699;48.072;7.800;2023-02-28T07:09:58;100043.50;;;-0.47;64.37
63554;BME280;49699;48.072;7.800;2023-02-28T07:12:23;100046.03;;;-0.44;64.21
63554;BME280;49699;48.072;7.800;2023-02-28T07:14:49;100044.34;;;-0.39;63.90
63554;BME280;49699;48.072;7.800;2023-02-28T07:17:14;100044.28;;;-0.34;64.04
63554;BME280;49699;48.072;7.800;2023-02-28T07:19:39;100050.25;;;-0.27;64.00
63554;BME280;49699;48.072;7.800;2023-02-28T07:22:05;100051.94;;;-0.25;63.46
63554;BME280;49699;48.072;7.800;2023-02-28T07:24:30;100054.50;;;-0.20;63.47
63554;BME280;49699;48.072;7.800;2023-02-28T07:26:55;100048.47;;;-0.16;63.67
63554;BME280;49699;48.072;7.800;2023-02-28T07:29:21;100049.31;;;-0.11;63.54
63554;BME280;49699;48.072;7.800;2023-02-28T07:31:46;100039.91;;;-0.06;63.00
63554;BME280;49699;48.072;7.800;2023-02-28T07:34:12;100038.19;;;-0.03;63.23
63554;BME280;49699;48.072;7.800;2023-02-28T07:36:37;100038.19;;;-0.03;63.04
63554;BME280;49699;48.072;7.800;2023-02-28T07:39:02;100042.47;;;-0.02;62.77
63554;BME280;49699;48.072;7.800;2023-02-28T07:41:29;100044.16;;;-0.02;62.78
63554;BME280;49699;48.072;7.800;2023-02-28T07:43:54;100050.16;;;-0.03;62.78
63554;BME280;49699;48.072;7.800;2023-02-28T07:46:22;100046.72;;;-0.01;62.78
63554;BME280;49699;48.072;7.800;2023-02-28T07:48:47;100050.09;;;0.03;62.68
63554;BME280;49699;48.072;7.800;2023-02-28T07:51:12;100056.06;;;0.05;62.57
63554;BME280;49699;48.072;7.800;2023-02-28T07:56:29;100058.63;;;0.05;62.73
63554;BME280;49699;48.072;7.800;2023-02-28T07:58:54;100058.59;;;0.08;63.01
63554;BME280;49699;48.072;7.800;2023-02-28T08:01:20;100060.28;;;0.14;62.61
63554;BME280;49699;48.072;7.800;2023-02-28T08:03:45;100055.13;;;0.18;62.62
63554;BME280;49699;48.072;7.800;2023-02-28T08:06:15;100055.13;;;0.20;62.54
63554;BME280;49699;48.072;7.800;2023-02-28T08:08:41;100055.09;;;0.26;62.55
63554;BME280;49699;48.072;7.800;2023-02-28T08:11:06;100055.91;;;0.34;62.40
63554;BME280;49699;48.072;7.800;2023-02-28T08:13:32;100053.28;;;0.39;62.33
63554;BME280;49699;48.072;7.800;2023-02-28T08:15:57;100057.53;;;0.44;62.34
63554;BME280;49699;48.072;7.800;2023-02-28T08:18:22;100063.47;;;0.49;62.29
63554;BME280;49699;48.072;7.800;2023-02-28T08:20:48;100063.41;;;0.57;62.17
63554;BME280;49699;48.072;7.800;2023-02-28T08:23:14;100059.06;;;0.69;62.00
63554;BME280;49699;48.072;7.800;2023-02-28T08:25:39;100063.19;;;0.86;61.50
63554;BME280;49699;48.072;7.800;2023-02-28T08:28:04;100061.38;;;0.98;61.03
63554;BME280;49699;48.072;7.800;2023-02-28T08:30:30;100059.59;;;1.07;61.21
63554;BME280;49699;48.072;7.800;2023-02-28T08:32:55;100058.66;;;1.14;60.90
63554;BME280;49699;48.072;7.800;2023-02-28T08:35:21;100062.91;;;1.18;60.68
63554;BME280;49699;48.072;7.800;2023-02-28T08:37:49;100070.47;;;1.28;60.75
63554;BME280;49699;48.072;7.800;2023-02-28T08:40:15;100060.91;;;1.44;60.35
63554;BME280;49699;48.072;7.800;2023-02-28T08:42:47;100066.56;;;1.75;59.68
63554;BME280;49699;48.072;7.800;2023-02-28T08:45:13;100059.56;;;1.86;59.26
63554;BME280;49699;48.072;7.800;2023-02-28T08:47:38;100059.59;;;1.85;58.92
63554;BME280;49699;48.072;7.800;2023-02-28T08:50:03;100060.44;;;1.85;59.05
63554;BME280;49699;48.072;7.800;2023-02-28T08:52:29;100068.06;;;1.93;59.02
63554;BME280;49699;48.072;7.800;2023-02-28T08:54:54;100070.47;;;2.05;58.64
63554;BME280;49699;48.072;7.800;2023-02-28T08:57:20;100068.66;;;2.13;58.39
63554;BME280;49699;48.072;7.800;2023-02-28T08:59:45;100068.63;;;2.15;58.46
63554;BME280;49699;48.072;7.800;2023-02-28T09:02:12;100059.97;;;2.20;58.34
63554;BME280;49699;48.072;7.800;2023-02-28T09:04:37;100066.78;;;2.24;58.15
63554;BME280;49699;48.072;7.800;2023-02-28T09:07:03;100070.19;;;2.26;57.89
63554;BME280;49699;48.072;7.800;2023-02-28T09:09:28;100063.31;;;2.28;57.98
63554;BME280;49699;48.072;7.800;2023-02-28T09:11:55;100068.31;;;2.36;57.52
63554;BME280;49699;48.072;7.800;2023-02-28T09:14:20;100073.47;;;2.34;57.35
63554;BME280;49699;48.072;7.800;2023-02-28T09:16:45;100068.41;;;2.31;57.30
63554;BME280;49699;48.072;7.800;2023-02-28T09:19:11;100067.31;;;2.48;56.60
63554;BME280;49699;48.072;7.800;2023-02-28T09:21:37;100065.19;;;2.74;56.18
63554;BME280;49699;48.072;7.800;2023-02-28T09:24:02;100065.69;;;2.96;55.58
63554;BME280;49699;48.072;7.800;2023-02-28T09:26:27;100071.59;;;3.02;55.39
63554;BME280;49699;48.072;7.800;2023-02-28T09:28:54;100069.06;;;2.99;55.20
63554;BME280;49699;48.072;7.800;2023-02-28T09:31:21;100071.44;;;3.10;54.84
63554;BME280;49699;48.072;7.800;2023-02-28T09:33:47;100063.13;;;3.43;54.13
63554;BME280;49699;48.072;7.800;2023-02-28T09:36:12;100071.78;;;3.82;53.03
63554;BME280;49699;48.072;7.800;2023-02-28T09:38:38;100073.91;;;4.05;52.31
63554;BME280;49699;48.072;7.800;2023-02-28T09:41:10;100073.91;;;4.05;51.99
63554;BME280;49699;48.072;7.800;2023-02-28T09:43:37;100075.69;;;4.02;51.90
63554;BME280;49699;48.072;7.800;2023-02-28T09:46:14;100070.81;;;3.90;52.21
63554;BME280;49699;48.072;7.800;2023-02-28T09:48:44;100076.25;;;3.76;52.22
63554;BME280;49699;48.072;7.800;2023-02-28T09:51:26;100081.56;;;3.67;51.85
63554;BME280;49699;48.072;7.800;2023-02-28T09:53:53;100077.53;;;3.54;52.44
63554;BME280;49699;48.072;7.800;2023-02-28T09:56:24;100075.06;;;3.46;52.40
63554;BME280;49699;48.072;7.800;2023-02-28T10:06:50;100075.28;;;3.35;52.97
63554;BME280;49699;48.072;7.800;2023-02-28T10:09:21;100064.13;;;3.36;52.74
63554;BME280;49699;48.072;7.800;2023-02-28T10:11:50;100059.00;;;3.35;52.83
63554;BME280;49699;48.072;7.800;2023-02-28T10:14:18;100064.94;;;3.38;52.80
63554;BME280;49699;48.072;7.800;2023-02-28T10:21:55;100063.13;;;3.43;52.45
63554;BME280;49699;48.072;7.800;2023-02-28T10:24:41;100080.34;;;3.40;52.75
63554;BME280;49699;48.072;7.800;2023-02-28T10:27:15;100083.94;;;3.31;53.01
63554;BME280;49699;48.072;7.800;2023-02-28T10:29:45;100081.53;;;3.22;53.26
63554;BME280;49699;48.072;7.800;2023-02-28T10:32:11;100079.84;;;3.20;53.24
63554;BME280;49699;48.072;7.800;2023-02-28T10:34:37;100080.72;;;3.19;53.57
63554;BME280;49699;48.072;7.800;2023-02-28T10:37:03;100087.59;;;3.18;52.99
63554;BME280;49699;48.072;7.800;2023-02-28T10:39:36;100087.59;;;3.18;53.58
63554;BME280;49699;48.072;7.800;2023-02-28T10:42:02;100080.69;;;3.22;53.06
63554;BME280;49699;48.072;7.800;2023-02-28T10:44:28;100089.09;;;3.30;53.17
63554;BME280;49699;48.072;7.800;2023-02-28T10:46:53;100078.72;;;3.36;52.87
63554;BME280;49699;48.072;7.800;2023-02-28T10:49:23;100082.13;;;3.36;52.72
63554;BME280;49699;48.072;7.800;2023-02-28T10:51:49;100088.19;;;3.32;52.54
63554;BME280;49699;48.072;7.800;2023-02-28T10:54:18;100089.94;;;3.30;52.61
63554;BME280;49699;48.072;7.800;2023-02-28T10:56:44;100096.78;;;3.33;52.40
63554;BME280;49699;48.072;7.800;2023-02-28T10:59:26;100102.81;;;3.30;52.25
63554;BME280;49699;48.072;7.800;2023-02-28T11:01:52;100105.47;;;3.26;52.67
63554;BME280;49699;48.072;7.800;2023-02-28T11:04:19;100095.97;;;3.29;52.44
63554;BME280;49699;48.072;7.800;2023-02-28T11:06:44;100094.97;;;3.38;52.38
63554;BME280;49699;48.072;7.800;2023-02-28T11:09:19;100093.16;;;3.43;52.09
63554;BME280;49699;48.072;7.800;2023-02-28T11:11:47;100091.44;;;3.42;52.56
63554;BME280;49699;48.072;7.800;2023-02-28T11:14:33;100096.50;;;3.48;52.34
63554;BME280;49699;48.072;7.800;2023-02-28T11:19:45;100090.31;;;3.58;52.57
63554;BME280;49699;48.072;7.800;2023-02-28T11:22:15;100096.22;;;3.62;52.09
63554;BME280;49699;48.072;7.800;2023-02-28T11:24:44;100089.38;;;3.61;52.41
63554;BME280;49699;48.072;7.800;2023-02-28T11:27:25;100089.31;;;3.64;52.49
63554;BME280;49699;48.072;7.800;2023-02-28T11:29:51;100095.22;;;3.70;52.27
63554;BME280;49699;48.072;7.800;2023-02-28T11:32:20;100096.88;;;3.74;52.48
63554;BME280;49699;48.072;7.800;2023-02-28T11:34:46;100096.69;;;3.82;52.03
63554;BME280;49699;48.072;7.800;2023-02-28T11:37:15;100103.34;;;3.94;51.70
63554;BME280;49699;48.072;7.800;2023-02-28T11:39:41;100097.22;;;3.99;51.60
63554;BME280;49699;48.072;7.800;2023-02-28T11:42:11;100087.59;;;4.07;51.55
63554;BME280;49699;48.072;7.800;2023-02-28T11:44:58;100085.84;;;4.09;51.56
63554;BME280;49699;48.072;7.800;2023-02-28T11:47:44;100093.47;;;4.14;51.23
63554;BME280;49699;48.072;7.800;2023-02-28T11:50:16;100095.09;;;4.18;51.06
63554;BME280;49699;48.072;7.800;2023-02-28T11:55:16;100102.31;;;4.02;51.24
63554;BME280;49699;48.072;7.800;2023-02-28T12:00:12;100083.47;;;3.99;51.48
63554;BME280;49699;48.072;7.800;2023-02-28T12:03:04;100078.34;;;3.97;51.23
63554;BME280;49699;48.072;7.800;2023-02-28T12:10:35;100075.75;;;3.99;50.97
63554;BME280;49699;48.072;7.800;2023-02-28T12:13:15;100087.75;;;4.00;51.26
63554;BME280;49699;48.072;7.800;2023-02-28T12:15:44;100085.16;;;4.01;50.92
63554;BME280;49699;48.072;7.800;2023-02-28T12:18:18;100076.53;;;4.02;51.12
63554;BME280;49699;48.072;7.800;2023-02-28T12:20:49;100085.84;;;4.09;51.23
63554;BME280;49699;48.072;7.800;2023-02-28T12:26:20;100066.72;;;4.19;50.88
63554;BME280;49699;48.072;7.800;2023-02-28T12:29:39;100071.06;;;4.17;50.40
63554;BME280;49699;48.072;7.800;2023-02-28T12:31:40;100071.88;;;4.19;50.45
63554;BME280;49699;48.072;7.800;2023-02-28T12:34:09;100076.16;;;4.21;50.71
63554;BME280;49699;48.072;7.800;2023-02-28T12:36:36;100077.75;;;4.26;50.74
63554;BME280;49699;48.072;7.800;2023-02-28T12:39:13;100070.91;;;4.25;50.64
63554;BME280;49699;48.072;7.800;2023-02-28T12:44:27;100068.97;;;4.35;50.46
63554;BME280;49699;48.072;7.800;2023-02-28T12:46:56;100068.78;;;4.44;50.66
63554;BME280;49699;48.072;7.800;2023-02-28T12:49:25;100066.06;;;4.48;50.25
63554;BME280;49699;48.072;7.800;2023-02-28T12:51:52;100064.22;;;4.55;49.77
63554;BME280;49699;48.072;7.800;2023-02-28T12:54:25;100058.22;;;4.54;49.89
63554;BME280;49699;48.072;7.800;2023-02-28T12:59:41;100054.66;;;4.60;49.72
63554;BME280;49699;48.072;7.800;2023-02-28T13:09:54;100059.53;;;5.06;49.16
63554;BME280;49699;48.072;7.800;2023-02-28T13:12:21;100050.81;;;5.10;48.95
63554;BME280;49699;48.072;7.800;2023-02-28T13:14:47;100044.66;;;5.16;48.99
63554;BME280;49699;48.072;7.800;2023-02-28T13:17:18;100049.47;;;5.30;48.60
63554;BME280;49699;48.072;7.800;2023-02-28T13:22:17;100042.66;;;5.27;48.65
63554;BME280;49699;48.072;7.800;2023-02-28T13:24:48;100044.38;;;5.27;48.55
63554;BME280;49699;48.072;7.800;2023-02-28T13:29:40;100043.41;;;5.31;49.08
63554;BME280;49699;48.072;7.800;2023-02-28T13:39:46;100041.41;;;5.73;47.94
63554;BME280;49699;48.072;7.800;2023-02-28T13:47:36;100045.03;;;6.26;46.92
63554;BME280;49699;48.072;7.800;2023-02-28T14:05:17;100046.44;;;6.08;47.03
63554;BME280;49699;48.072;7.800;2023-02-28T14:07:45;100048.31;;;6.03;46.97
63554;BME280;49699;48.072;7.800;2023-02-28T14:10:20;100047.66;;;5.95;47.44
63554;BME280;49699;48.072;7.800;2023-02-28T14:15:39;100057.84;;;5.70;47.52
63554;BME280;49699;48.072;7.800;2023-02-28T14:18:26;100062.28;;;5.65;47.86
63554;BME280;49699;48.072;7.800;2023-02-28T14:20:54;100059.88;;;5.57;47.90
63554;BME280;49699;48.072;7.800;2023-02-28T14:26:02;100065.53;;;5.39;48.87
63554;BME280;49699;48.072;7.800;2023-02-28T14:31:10;100070.16;;;5.28;49.24
63554;BME280;49699;48.072;7.800;2023-02-28T14:33:53;100070.28;;;5.22;49.29
63554;BME280;49699;48.072;7.800;2023-02-28T14:36:27;100067.13;;;5.12;49.23
63554;BME280;49699;48.072;7.800;2023-02-28T14:38:56;100064.69;;;5.06;49.54
63554;BME280;49699;48.072;7.800;2023-02-28T14:41:23;100068.28;;;5.01;49.57
63554;BME280;49699;48.072;7.800;2023-02-28T14:43:50;100061.41;;;5.01;49.37
63554;BME280;49699;48.072;7.800;2023-02-28T14:46:16;100065.63;;;5.02;49.55
63554;BME280;49699;48.072;7.800;2023-02-28T14:48:44;100067.44;;;5.00;49.37
63554;BME280;49699;48.072;7.800;2023-02-28T14:51:10;100067.34;;;5.03;49.41
63554;BME280;49699;48.072;7.800;2023-02-28T14:53:36;100065.59;;;5.04;48.96
63554;BME280;49699;48.072;7.800;2023-02-28T14:56:02;100063.97;;;5.01;49.51
63554;BME280;49699;48.072;7.800;2023-02-28T14:58:28;100062.22;;;5.02;49.54